sensor_id;sensor_type;location;lat;lon;timestamp;temperature;humidity
39067;DHT22;24821;51.988;6.020;2023-02-10T00:02:01;3.60;99.90
39067;DHT22;24821;51.988;6.020;2023-02-10T00:04:27;3.60;99.90
39067;DHT22;24821;51.988;6.020;2023-02-10T00:06:52;3.60;99.90
39067;DHT22;24821;51.988;6.020;2023-02-10T00:09:18;3.60;99.90
39067;DHT22;24821;51.988;6.020;2023-02-10T00:11:43;3.60;99.90
39067;DHT22;24821;51.988;6.020;2023-02-10T00:14:28;3.60;99.90
39067;DHT22;24821;51.988;6.020;2023-02-10T00:16:54;3.50;99.90
39067;DHT22;24821;51.988;6.020;2023-02-10T00:19:22;3.60;99.90
39067;DHT22;24821;51.988;6.020;2023-02-10T00:21:48;3.50;99.90
39067;DHT22;24821;51.988;6.020;2023-02-10T00:24:13;3.50;99.90
39067;DHT22;24821;51.988;6.020;2023-02-10T00:26:39;3.50;99.90
39067;DHT22;24821;51.988;6.020;2023-02-10T00:29:04;3.40;99.90
39067;DHT22;24821;51.988;6.020;2023-02-10T00:31:30;3.50;99.90
39067;DHT22;24821;51.988;6.020;2023-02-10T00:33:55;3.50;99.90
39067;DHT22;24821;51.988;6.020;2023-02-10T00:36:21;3.40;99.90
39067;DHT22;24821;51.988;6.020;2023-02-10T00:38:49;3.50;99.90
39067;DHT22;24821;51.988;6.020;2023-02-10T00:41:17;3.40;99.90
39067;DHT22;24821;51.988;6.020;2023-02-10T00:43:43;3.50;99.90
39067;DHT22;24821;51.988;6.020;2023-02-10T00:46:10;3.50;99.90
39067;DHT22;24821;51.988;6.020;2023-02-10T00:48:36;3.50;99.90
39067;DHT22;24821;51.988;6.020;2023-02-10T00:51:02;3.50;99.90
39067;DHT22;24821;51.988;6.020;2023-02-10T00:53:28;3.50;99.90
39067;DHT22;24821;51.988;6.020;2023-02-10T00:55:54;3.50;99.90
39067;DHT22;24821;51.988;6.020;2023-02-10T00:58:20;3.40;99.90
39067;DHT22;24821;51.988;6.020;2023-02-10T01:00:46;3.40;99.90
39067;DHT22;24821;51.988;6.020;2023-02-10T01:03:12;3.40;99.90
39067;DHT22;24821;51.988;6.020;2023-02-10T01:05:37;3.50;99.90
39067;DHT22;24821;51.988;6.020;2023-02-10T01:08:03;3.50;99.90
39067;DHT22;24821;51.988;6.020;2023-02-10T01:10:29;3.50;99.90
39067;DHT22;24821;51.988;6.020;2023-02-10T01:12:54;3.50;99.90
39067;DHT22;24821;51.988;6.020;2023-02-10T01:15:20;3.50;99.90
39067;DHT22;24821;51.988;6.020;2023-02-10T01:17:46;3.50;99.90
39067;DHT22;24821;51.988;6.020;2023-02-10T01:20:11;3.50;99.90
39067;DHT22;24821;51.988;6.020;2023-02-10T01:22:37;3.50;99.90
39067;DHT22;24821;51.988;6.020;2023-02-10T01:25:03;3.50;99.90
39067;DHT22;24821;51.988;6.020;2023-02-10T01:27:28;3.40;99.90
39067;DHT22;24821;51.988;6.020;2023-02-10T01:29:54;3.50;99.90
39067;DHT22;24821;51.988;6.020;2023-02-10T01:32:19;3.50;99.90
39067;DHT22;24821;51.988;6.020;2023-02-10T01:34:45;3.40;99.90
39067;DHT22;24821;51.988;6.020;2023-02-10T01:37:11;3.40;99.90
39067;DHT22;24821;51.988;6.020;2023-02-10T01:39:36;3.40;99.90
39067;DHT22;24821;51.988;6.020;2023-02-10T01:42:02;3.40;99.90
39067;DHT22;24821;51.988;6.020;2023-02-10T01:46:55;3.40;99.90
39067;DHT22;24821;51.988;6.020;2023-02-10T01:49:26;3.40;99.90
39067;DHT22;24821;51.988;6.020;2023-02-10T01:51:57;3.40;99.90
39067;DHT22;24821;51.988;6.020;2023-02-10T01:54:46;3.40;99.90
39067;DHT22;24821;51.988;6.020;2023-02-10T01:57:13;3.40;99.90
39067;DHT22;24821;51.988;6.020;2023-02-10T01:59:39;3.40;99.90
39067;DHT22;24821;51.988;6.020;2023-02-10T02:02:06;3.40;99.90
39067;DHT22;24821;51.988;6.020;2023-02-10T02:04:49;3.40;99.90
39067;DHT22;24821;51.988;6.020;2023-02-10T02:07:17;3.50;99.90
39067;DHT22;24821;51.988;6.020;2023-02-10T02:09:44;3.40;99.90
39067;DHT22;24821;51.988;6.020;2023-02-10T02:12:38;3.50;99.90
39067;DHT22;24821;51.988;6.020;2023-02-10T02:15:14;3.50;99.90
39067;DHT22;24821;51.988;6.020;2023-02-10T02:17:52;3.40;99.90
39067;DHT22;24821;51.988;6.020;2023-02-10T02:36:50;3.30;99.90
39067;DHT22;24821;51.988;6.020;2023-02-10T02:39:17;3.30;99.90
39067;DHT22;24821;51.988;6.020;2023-02-10T02:41:43;3.30;99.90
39067;DHT22;24821;51.988;6.020;2023-02-10T02:44:08;3.30;99.90
39067;DHT22;24821;51.988;6.020;2023-02-10T02:47:08;3.30;99.90
39067;DHT22;24821;51.988;6.020;2023-02-10T02:49:31;3.30;99.90
39067;DHT22;24821;51.988;6.020;2023-02-10T02:52:04;3.30;99.90
39067;DHT22;24821;51.988;6.020;2023-02-10T02:57:15;3.30;99.90
39067;DHT22;24821;51.988;6.020;2023-02-10T03:00:27;3.30;99.90
39067;DHT22;24821;51.988;6.020;2023-02-10T03:02:53;3.40;99.90
39067;DHT22;24821;51.988;6.020;2023-02-10T03:05:20;3.30;99.90
39067;DHT22;24821;51.988;6.020;2023-02-10T03:07:47;3.30;99.90
39067;DHT22;24821;51.988;6.020;2023-02-10T03:10:13;3.30;99.90
39067;DHT22;24821;51.988;6.020;2023-02-10T03:12:38;3.30;99.90
39067;DHT22;24821;51.988;6.020;2023-02-10T03:15:04;3.30;99.90
39067;DHT22;24821;51.988;6.020;2023-02-10T03:17:30;3.30;99.90
39067;DHT22;24821;51.988;6.020;2023-02-10T03:19:55;3.30;99.90
39067;DHT22;24821;51.988;6.020;2023-02-10T03:22:21;3.30;99.90
39067;DHT22;24821;51.988;6.020;2023-02-10T03:24:46;3.30;99.90
39067;DHT22;24821;51.988;6.020;2023-02-10T03:27:12;3.30;99.90
39067;DHT22;24821;51.988;6.020;2023-02-10T03:29:38;3.20;99.90
39067;DHT22;24821;51.988;6.020;2023-02-10T03:32:03;3.20;99.90
39067;DHT22;24821;51.988;6.020;2023-02-10T03:34:30;3.20;99.90
39067;DHT22;24821;51.988;6.020;2023-02-10T03:36:56;3.10;99.90
39067;DHT22;24821;51.988;6.020;2023-02-10T03:39:22;3.10;99.90
39067;DHT22;24821;51.988;6.020;2023-02-10T03:41:48;3.00;99.90
39067;DHT22;24821;51.988;6.020;2023-02-10T03:44:13;3.00;99.90
39067;DHT22;24821;51.988;6.020;2023-02-10T03:46:39;3.00;99.90
39067;DHT22;24821;51.988;6.020;2023-02-10T03:49:05;3.00;99.90
39067;DHT22;24821;51.988;6.020;2023-02-10T03:51:31;3.00;99.90
39067;DHT22;24821;51.988;6.020;2023-02-10T03:53:56;2.90;99.90
39067;DHT22;24821;51.988;6.020;2023-02-10T03:56:22;2.90;99.90
39067;DHT22;24821;51.988;6.020;2023-02-10T03:58:47;2.90;99.90
39067;DHT22;24821;51.988;6.020;2023-02-10T04:01:15;2.90;99.90
39067;DHT22;24821;51.988;6.020;2023-02-10T04:03:42;2.90;99.90
39067;DHT22;24821;51.988;6.020;2023-02-10T04:06:08;2.90;99.90
39067;DHT22;24821;51.988;6.020;2023-02-10T04:08:34;2.80;99.90
39067;DHT22;24821;51.988;6.020;2023-02-10T04:11:00;2.80;99.90
39067;DHT22;24821;51.988;6.020;2023-02-10T04:13:26;2.80;99.90
39067;DHT22;24821;51.988;6.020;2023-02-10T04:16:09;2.80;99.90
39067;DHT22;24821;51.988;6.020;2023-02-10T04:18:35;2.80;99.90
39067;DHT22;24821;51.988;6.020;2023-02-10T04:21:04;2.70;99.90
39067;DHT22;24821;51.988;6.020;2023-02-10T04:23:30;2.80;99.90
39067;DHT22;24821;51.988;6.020;2023-02-10T04:25:56;2.70;99.90
39067;DHT22;24821;51.988;6.020;2023-02-10T04:28:22;2.80;99.90
39067;DHT22;24821;51.988;6.020;2023-02-10T04:30:55;2.70;99.90
39067;DHT22;24821;51.988;6.020;2023-02-10T04:33:22;2.70;99.90
39067;DHT22;24821;51.988;6.020;2023-02-10T04:35:48;2.60;99.90
39067;DHT22;24821;51.988;6.020;2023-02-10T04:38:14;2.60;99.90
39067;DHT22;24821;51.988;6.020;2023-02-10T04:40:39;2.60;99.90
39067;DHT22;24821;51.988;6.020;2023-02-10T04:43:05;2.60;99.90
39067;DHT22;24821;51.988;6.020;2023-02-10T04:45:31;2.60;99.90
39067;DHT22;24821;51.988;6.020;2023-02-10T04:47:57;2.60;99.90
39067;DHT22;24821;51.988;6.020;2023-02-10T04:50:22;2.50;99.90
39067;DHT22;24821;51.988;6.020;2023-02-10T04:52:48;2.50;99.90
39067;DHT22;24821;51.988;6.020;2023-02-10T04:55:14;2.50;99.90
39067;DHT22;24821;51.988;6.020;2023-02-10T04:57:39;2.50;99.90
39067;DHT22;24821;51.988;6.020;2023-02-10T05:00:05;2.40;99.90
39067;DHT22;24821;51.988;6.020;2023-02-10T05:02:31;2.40;99.90
39067;DHT22;24821;51.988;6.020;2023-02-10T05:04:56;2.40;99.90
39067;DHT22;24821;51.988;6.020;2023-02-10T05:07:22;2.40;99.90
39067;DHT22;24821;51.988;6.020;2023-02-10T05:09:47;2.40;99.90
39067;DHT22;24821;51.988;6.020;2023-02-10T05:12:13;2.30;99.90
39067;DHT22;24821;51.988;6.020;2023-02-10T05:14:38;2.30;99.90
39067;DHT22;24821;51.988;6.020;2023-02-10T05:17:04;2.30;99.90
39067;DHT22;24821;51.988;6.020;2023-02-10T05:19:30;2.20;99.90
39067;DHT22;24821;51.988;6.020;2023-02-10T05:21:55;2.10;99.90
39067;DHT22;24821;51.988;6.020;2023-02-10T05:24:21;2.10;99.90
39067;DHT22;24821;51.988;6.020;2023-02-10T05:26:46;2.10;99.90
39067;DHT22;24821;51.988;6.020;2023-02-10T05:29:12;2.00;99.90
39067;DHT22;24821;51.988;6.020;2023-02-10T05:31:37;2.00;99.90
39067;DHT22;24821;51.988;6.020;2023-02-10T05:34:03;1.90;99.90
39067;DHT22;24821;51.988;6.020;2023-02-10T05:36:28;1.90;99.90
39067;DHT22;24821;51.988;6.020;2023-02-10T05:38:54;1.80;99.90
39067;DHT22;24821;51.988;6.020;2023-02-10T05:41:38;1.80;99.90
39067;DHT22;24821;51.988;6.020;2023-02-10T05:44:04;1.80;99.90
39067;DHT22;24821;51.988;6.020;2023-02-10T05:46:29;1.80;99.90
39067;DHT22;24821;51.988;6.020;2023-02-10T05:48:55;1.80;99.90
39067;DHT22;24821;51.988;6.020;2023-02-10T05:51:20;1.70;99.90
39067;DHT22;24821;51.988;6.020;2023-02-10T05:53:46;1.70;99.90
39067;DHT22;24821;51.988;6.020;2023-02-10T05:56:11;1.70;99.90
39067;DHT22;24821;51.988;6.020;2023-02-10T05:58:37;1.70;99.90
39067;DHT22;24821;51.988;6.020;2023-02-10T06:01:06;1.70;99.90
39067;DHT22;24821;51.988;6.020;2023-02-10T06:03:33;1.70;99.90
39067;DHT22;24821;51.988;6.020;2023-02-10T06:05:58;1.70;99.90
39067;DHT22;24821;51.988;6.020;2023-02-10T06:08:24;1.70;99.90
39067;DHT22;24821;51.988;6.020;2023-02-10T06:10:50;1.70;99.90
39067;DHT22;24821;51.988;6.020;2023-02-10T06:13:15;1.60;99.90
39067;DHT22;24821;51.988;6.020;2023-02-10T06:15:41;1.60;99.90
39067;DHT22;24821;51.988;6.020;2023-02-10T06:18:06;1.60;99.90
39067;DHT22;24821;51.988;6.020;2023-02-10T06:20:32;1.60;99.90
39067;DHT22;24821;51.988;6.020;2023-02-10T06:22:58;1.60;99.90
39067;DHT22;24821;51.988;6.020;2023-02-10T06:25:23;1.60;99.90
39067;DHT22;24821;51.988;6.020;2023-02-10T06:27:49;1.60;99.90
39067;DHT22;24821;51.988;6.020;2023-02-10T06:30:14;1.60;99.90
39067;DHT22;24821;51.988;6.020;2023-02-10T06:32:40;1.60;99.90
39067;DHT22;24821;51.988;6.020;2023-02-10T06:35:06;1.60;99.90
39067;DHT22;24821;51.988;6.020;2023-02-10T06:37:31;1.60;99.90
39067;DHT22;24821;51.988;6.020;2023-02-10T06:39:57;1.60;99.90
39067;DHT22;24821;51.988;6.020;2023-02-10T06:42:23;1.50;99.90
39067;DHT22;24821;51.988;6.020;2023-02-10T06:44:48;1.50;99.90
39067;DHT22;24821;51.988;6.020;2023-02-10T06:47:14;1.50;99.90
39067;DHT22;24821;51.988;6.020;2023-02-10T06:49:39;1.50;99.90
39067;DHT22;24821;51.988;6.020;2023-02-10T06:52:05;1.50;99.90
39067;DHT22;24821;51.988;6.020;2023-02-10T06:54:31;1.40;99.90
39067;DHT22;24821;51.988;6.020;2023-02-10T06:56:56;1.40;99.90
39067;DHT22;24821;51.988;6.020;2023-02-10T06:59:22;1.40;99.90
39067;DHT22;24821;51.988;6.020;2023-02-10T07:01:47;1.40;99.90
39067;DHT22;24821;51.988;6.020;2023-02-10T07:04:13;1.30;99.90
39067;DHT22;24821;51.988;6.020;2023-02-10T07:06:39;1.30;99.90
39067;DHT22;24821;51.988;6.020;2023-02-10T07:09:05;1.30;99.90
39067;DHT22;24821;51.988;6.020;2023-02-10T07:11:32;1.40;99.90
39067;DHT22;24821;51.988;6.020;2023-02-10T07:13:58;1.40;99.90
39067;DHT22;24821;51.988;6.020;2023-02-10T07:16:24;1.40;99.90
39067;DHT22;24821;51.988;6.020;2023-02-10T07:18:49;1.50;99.90
39067;DHT22;24821;51.988;6.020;2023-02-10T07:21:15;1.50;99.90
39067;DHT22;24821;51.988;6.020;2023-02-10T07:23:40;1.50;99.90
39067;DHT22;24821;51.988;6.020;2023-02-10T07:26:06;1.50;99.90
39067;DHT22;24821;51.988;6.020;2023-02-10T07:28:32;1.60;99.90
39067;DHT22;24821;51.988;6.020;2023-02-10T07:30:58;1.60;99.90
39067;DHT22;24821;51.988;6.020;2023-02-10T07:33:24;1.60;99.90
39067;DHT22;24821;51.988;6.020;2023-02-10T07:35:49;1.60;99.90
39067;DHT22;24821;51.988;6.020;2023-02-10T07:38:15;1.60;99.90
39067;DHT22;24821;51.988;6.020;2023-02-10T07:40:40;1.60;99.90
39067;DHT22;24821;51.988;6.020;2023-02-10T07:43:06;1.70;99.90
39067;DHT22;24821;51.988;6.020;2023-02-10T07:45:32;1.70;99.90
39067;DHT22;24821;51.988;6.020;2023-02-10T07:47:58;1.80;99.90
39067;DHT22;24821;51.988;6.020;2023-02-10T07:50:24;1.80;99.90
39067;DHT22;24821;51.988;6.020;2023-02-10T07:52:51;1.90;99.90
39067;DHT22;24821;51.988;6.020;2023-02-10T07:55:16;1.90;99.90
39067;DHT22;24821;51.988;6.020;2023-02-10T07:57:42;2.00;99.90
39067;DHT22;24821;51.988;6.020;2023-02-10T08:00:08;2.00;99.90
39067;DHT22;24821;51.988;6.020;2023-02-10T08:02:34;2.10;99.90
39067;DHT22;24821;51.988;6.020;2023-02-10T08:05:00;2.10;99.90
39067;DHT22;24821;51.988;6.020;2023-02-10T08:07:25;2.10;99.90
39067;DHT22;24821;51.988;6.020;2023-02-10T08:09:51;2.10;99.90
39067;DHT22;24821;51.988;6.020;2023-02-10T08:12:17;2.10;99.90
39067;DHT22;24821;51.988;6.020;2023-02-10T08:14:42;2.10;99.90
39067;DHT22;24821;51.988;6.020;2023-02-10T08:17:08;2.20;99.90
39067;DHT22;24821;51.988;6.020;2023-02-10T08:19:34;2.20;99.90
39067;DHT22;24821;51.988;6.020;2023-02-10T08:22:04;2.20;99.90
39067;DHT22;24821;51.988;6.020;2023-02-10T08:24:31;2.20;99.90
39067;DHT22;24821;51.988;6.020;2023-02-10T08:26:56;2.20;99.90
39067;DHT22;24821;51.988;6.020;2023-02-10T08:29:22;2.20;99.90
39067;DHT22;24821;51.988;6.020;2023-02-10T08:31:51;2.30;99.90
39067;DHT22;24821;51.988;6.020;2023-02-10T08:34:18;2.30;99.90
39067;DHT22;24821;51.988;6.020;2023-02-10T08:36:45;2.30;99.90
39067;DHT22;24821;51.988;6.020;2023-02-10T08:39:11;2.30;99.90
39067;DHT22;24821;51.988;6.020;2023-02-10T08:41:37;2.40;99.90
39067;DHT22;24821;51.988;6.020;2023-02-10T08:44:03;2.40;99.90
39067;DHT22;24821;51.988;6.020;2023-02-10T08:46:29;2.40;99.90
39067;DHT22;24821;51.988;6.020;2023-02-10T08:48:55;2.30;99.90
39067;DHT22;24821;51.988;6.020;2023-02-10T08:51:21;2.30;99.90
39067;DHT22;24821;51.988;6.020;2023-02-10T08:53:46;2.30;99.90
39067;DHT22;24821;51.988;6.020;2023-02-10T08:56:17;2.30;99.90
39067;DHT22;24821;51.988;6.020;2023-02-10T08:58:43;2.30;99.90
39067;DHT22;24821;51.988;6.020;2023-02-10T09:01:14;2.40;99.90
39067;DHT22;24821;51.988;6.020;2023-02-10T09:03:40;2.50;99.90
39067;DHT22;24821;51.988;6.020;2023-02-10T09:06:13;2.50;99.90
39067;DHT22;24821;51.988;6.020;2023-02-10T09:08:40;2.60;99.90
39067;DHT22;24821;51.988;6.020;2023-02-10T09:11:07;2.60;99.90
39067;DHT22;24821;51.988;6.020;2023-02-10T09:13:33;2.70;99.90
39067;DHT22;24821;51.988;6.020;2023-02-10T09:15:59;2.80;99.90
39067;DHT22;24821;51.988;6.020;2023-02-10T09:18:24;2.90;99.90
39067;DHT22;24821;51.988;6.020;2023-02-10T09:20:50;2.90;99.90
39067;DHT22;24821;51.988;6.020;2023-02-10T09:23:15;3.00;99.90
39067;DHT22;24821;51.988;6.020;2023-02-10T09:25:41;3.10;99.90
39067;DHT22;24821;51.988;6.020;2023-02-10T09:28:06;3.10;99.90
39067;DHT22;24821;51.988;6.020;2023-02-10T09:30:34;3.10;99.90
39067;DHT22;24821;51.988;6.020;2023-02-10T09:32:59;3.20;99.90
39067;DHT22;24821;51.988;6.020;2023-02-10T09:35:25;3.20;99.90
39067;DHT22;24821;51.988;6.020;2023-02-10T09:37:50;3.30;99.90
39067;DHT22;24821;51.988;6.020;2023-02-10T09:40:22;3.40;99.90
39067;DHT22;24821;51.988;6.020;2023-02-10T09:43:25;3.40;99.90
39067;DHT22;24821;51.988;6.020;2023-02-10T09:49:08;3.50;99.90
39067;DHT22;24821;51.988;6.020;2023-02-10T09:51:43;3.50;99.90
39067;DHT22;24821;51.988;6.020;2023-02-10T09:54:15;3.50;99.90
39067;DHT22;24821;51.988;6.020;2023-02-10T09:56:41;3.60;99.90
39067;DHT22;24821;51.988;6.020;2023-02-10T09:59:14;3.70;99.90
39067;DHT22;24821;51.988;6.020;2023-02-10T10:01:47;3.80;99.90
39067;DHT22;24821;51.988;6.020;2023-02-10T10:04:18;3.80;99.90
39067;DHT22;24821;51.988;6.020;2023-02-10T10:06:48;3.90;99.90
39067;DHT22;24821;51.988;6.020;2023-02-10T10:09:21;3.90;99.90
39067;DHT22;24821;51.988;6.020;2023-02-10T10:11:52;4.00;99.90
39067;DHT22;24821;51.988;6.020;2023-02-10T10:14:29;4.10;99.90
39067;DHT22;24821;51.988;6.020;2023-02-10T10:20:11;4.20;99.90
39067;DHT22;24821;51.988;6.020;2023-02-10T10:30:52;4.20;99.90
39067;DHT22;24821;51.988;6.020;2023-02-10T10:33:22;4.30;99.90
39067;DHT22;24821;51.988;6.020;2023-02-10T10:35:48;4.40;99.90
39067;DHT22;24821;51.988;6.020;2023-02-10T10:38:25;4.50;99.90
39067;DHT22;24821;51.988;6.020;2023-02-10T10:40:58;4.60;99.90
39067;DHT22;24821;51.988;6.020;2023-02-10T10:43:30;4.70;99.90
39067;DHT22;24821;51.988;6.020;2023-02-10T10:46:06;4.80;99.90
39067;DHT22;24821;51.988;6.020;2023-02-10T10:48:36;4.90;99.90
39067;DHT22;24821;51.988;6.020;2023-02-10T10:51:05;4.90;99.90
39067;DHT22;24821;51.988;6.020;2023-02-10T10:53:37;4.90;99.90
39067;DHT22;24821;51.988;6.020;2023-02-10T10:56:08;5.00;99.90
39067;DHT22;24821;51.988;6.020;2023-02-10T10:58:42;5.00;99.90
39067;DHT22;24821;51.988;6.020;2023-02-10T11:01:10;5.00;99.90
39067;DHT22;24821;51.988;6.020;2023-02-10T11:03:36;5.10;99.90
39067;DHT22;24821;51.988;6.020;2023-02-10T11:06:15;5.20;99.90
39067;DHT22;24821;51.988;6.020;2023-02-10T11:09:01;5.20;99.90
39067;DHT22;24821;51.988;6.020;2023-02-10T11:11:40;5.30;99.90
39067;DHT22;24821;51.988;6.020;2023-02-10T11:14:18;5.40;99.90
39067;DHT22;24821;51.988;6.020;2023-02-10T11:16:49;5.50;99.90
39067;DHT22;24821;51.988;6.020;2023-02-10T11:19:21;5.50;99.90
39067;DHT22;24821;51.988;6.020;2023-02-10T11:21:48;5.60;99.90
39067;DHT22;24821;51.988;6.020;2023-02-10T11:26:54;5.80;99.90
39067;DHT22;24821;51.988;6.020;2023-02-10T11:29:20;5.90;99.90
39067;DHT22;24821;51.988;6.020;2023-02-10T11:31:46;6.00;99.90
39067;DHT22;24821;51.988;6.020;2023-02-10T11:34:31;6.10;99.90
39067;DHT22;24821;51.988;6.020;2023-02-10T11:37:09;6.10;99.90
39067;DHT22;24821;51.988;6.020;2023-02-10T11:39:38;6.20;99.90
39067;DHT22;24821;51.988;6.020;2023-02-10T11:42:30;6.20;99.90
39067;DHT22;24821;51.988;6.020;2023-02-10T11:45:22;6.30;99.90
39067;DHT22;24821;51.988;6.020;2023-02-10T11:47:47;6.40;99.90
39067;DHT22;24821;51.988;6.020;2023-02-10T11:50:25;6.50;99.90
39067;DHT22;24821;51.988;6.020;2023-02-10T11:52:51;6.60;99.90
39067;DHT22;24821;51.988;6.020;2023-02-10T11:55:17;6.60;99.90
39067;DHT22;24821;51.988;6.020;2023-02-10T12:00:54;6.80;99.90
39067;DHT22;24821;51.988;6.020;2023-02-10T12:08:55;7.00;99.90
39067;DHT22;24821;51.988;6.020;2023-02-10T12:11:39;7.10;99.90
39067;DHT22;24821;51.988;6.020;2023-02-10T12:17:24;7.20;99.90
39067;DHT22;24821;51.988;6.020;2023-02-10T12:20:22;7.30;99.90
39067;DHT22;24821;51.988;6.020;2023-02-10T12:26:28;7.40;99.90
39067;DHT22;24821;51.988;6.020;2023-02-10T12:29:11;7.40;99.90
39067;DHT22;24821;51.988;6.020;2023-02-10T12:37:34;7.50;99.90
39067;DHT22;24821;51.988;6.020;2023-02-10T12:40:30;7.60;99.90
39067;DHT22;24821;51.988;6.020;2023-02-10T12:48:41;7.70;99.90
39067;DHT22;24821;51.988;6.020;2023-02-10T12:51:28;7.70;99.90
39067;DHT22;24821;51.988;6.020;2023-02-10T12:54:03;7.80;99.90
39067;DHT22;24821;51.988;6.020;2023-02-10T12:56:40;7.90;99.90
39067;DHT22;24821;51.988;6.020;2023-02-10T12:59:21;8.00;99.90
39067;DHT22;24821;51.988;6.020;2023-02-10T13:01:55;8.00;99.90
39067;DHT22;24821;51.988;6.020;2023-02-10T13:04:26;8.00;99.90
39067;DHT22;24821;51.988;6.020;2023-02-10T13:07:26;8.10;99.90
39067;DHT22;24821;51.988;6.020;2023-02-10T13:10:04;8.20;99.90
39067;DHT22;24821;51.988;6.020;2023-02-10T13:12:35;8.20;99.90
39067;DHT22;24821;51.988;6.020;2023-02-10T13:15:06;8.20;99.90
39067;DHT22;24821;51.988;6.020;2023-02-10T13:17:44;8.20;99.90
39067;DHT22;24821;51.988;6.020;2023-02-10T13:29:06;8.40;99.90
39067;DHT22;24821;51.988;6.020;2023-02-10T13:34:29;8.50;99.90
39067;DHT22;24821;51.988;6.020;2023-02-10T13:37:10;8.40;99.90
39067;DHT22;24821;51.988;6.020;2023-02-10T13:39:39;8.40;99.90
39067;DHT22;24821;51.988;6.020;2023-02-10T13:42:17;8.40;99.90
39067;DHT22;24821;51.988;6.020;2023-02-10T13:44:43;8.50;99.90
39067;DHT22;24821;51.988;6.020;2023-02-10T13:47:11;8.50;99.90
39067;DHT22;24821;51.988;6.020;2023-02-10T13:49:53;8.50;99.90
39067;DHT22;24821;51.988;6.020;2023-02-10T13:52:26;8.40;99.90
39067;DHT22;24821;51.988;6.020;2023-02-10T13:57:36;8.40;99.90
39067;DHT22;24821;51.988;6.020;2023-02-10T14:00:25;8.30;99.90
39067;DHT22;24821;51.988;6.020;2023-02-10T14:03:20;8.20;99.90
39067;DHT22;24821;51.988;6.020;2023-02-10T14:06:02;8.10;99.90
39067;DHT22;24821;51.988;6.020;2023-02-10T14:08:40;8.10;99.90
39067;DHT22;24821;51.988;6.020;2023-02-10T14:13:43;8.00;99.90
39067;DHT22;24821;51.988;6.020;2023-02-10T14:18:43;8.10;99.90
39067;DHT22;24821;51.988;6.020;2023-02-10T14:21:13;8.10;99.90
39067;DHT22;24821;51.988;6.020;2023-02-10T14:23:50;8.10;99.90
39067;DHT22;24821;51.988;6.020;2023-02-10T14:26:32;8.20;99.90
39067;DHT22;24821;51.988;6.020;2023-02-10T14:28:59;8.20;99.90
39067;DHT22;24821;51.988;6.020;2023-02-10T14:31:30;8.20;99.90
39067;DHT22;24821;51.988;6.020;2023-02-10T14:34:03;8.30;99.90
39067;DHT22;24821;51.988;6.020;2023-02-10T14:36:30;8.20;99.90
39067;DHT22;24821;51.988;6.020;2023-02-10T14:38:59;8.20;99.90
39067;DHT22;24821;51.988;6.020;2023-02-10T14:41:27;8.20;99.90
39067;DHT22;24821;51.988;6.020;2023-02-10T14:43:53;8.30;99.90
39067;DHT22;24821;51.988;6.020;2023-02-10T14:46:28;8.30;99.90
39067;DHT22;24821;51.988;6.020;2023-02-10T14:49:07;8.30;99.90
39067;DHT22;24821;51.988;6.020;2023-02-10T14:51:39;8.30;99.90
39067;DHT22;24821;51.988;6.020;2023-02-10T14:54:24;8.30;99.90
39067;DHT22;24821;51.988;6.020;2023-02-10T14:56:58;8.40;99.90
39067;DHT22;24821;51.988;6.020;2023-02-10T14:59:30;8.40;99.90
39067;DHT22;24821;51.988;6.020;2023-02-10T15:02:04;8.40;99.90
39067;DHT22;24821;51.988;6.020;2023-02-10T15:04:29;8.30;99.90
39067;DHT22;24821;51.988;6.020;2023-02-10T15:06:57;8.20;99.90
39067;DHT22;24821;51.988;6.020;2023-02-10T15:09:34;8.10;99.90
39067;DHT22;24821;51.988;6.020;2023-02-10T15:12:07;8.10;99.90
39067;DHT22;24821;51.988;6.020;2023-02-10T15:17:36;8.00;99.90
39067;DHT22;24821;51.988;6.020;2023-02-10T15:20:27;8.00;99.90
39067;DHT22;24821;51.988;6.020;2023-02-10T15:30:57;7.90;99.90
39067;DHT22;24821;51.988;6.020;2023-02-10T15:36:08;7.80;99.90
39067;DHT22;24821;51.988;6.020;2023-02-10T15:41:34;7.70;99.90
39067;DHT22;24821;51.988;6.020;2023-02-10T15:47:22;7.60;99.90
39067;DHT22;24821;51.988;6.020;2023-02-10T15:49:53;7.60;99.90
39067;DHT22;24821;51.988;6.020;2023-02-10T15:52:25;7.50;99.90
39067;DHT22;24821;51.988;6.020;2023-02-10T15:54:54;7.50;99.90
39067;DHT22;24821;51.988;6.020;2023-02-10T15:57:23;7.40;99.90
39067;DHT22;24821;51.988;6.020;2023-02-10T15:59:48;7.40;99.90
39067;DHT22;24821;51.988;6.020;2023-02-10T16:02:16;7.30;99.90
39067;DHT22;24821;51.988;6.020;2023-02-10T16:04:42;7.30;99.90
39067;DHT22;24821;51.988;6.020;2023-02-10T16:07:11;7.30;99.90
39067;DHT22;24821;51.988;6.020;2023-02-10T16:09:38;7.30;99.90
39067;DHT22;24821;51.988;6.020;2023-02-10T16:12:04;7.30;99.90
39067;DHT22;24821;51.988;6.020;2023-02-10T16:14:30;7.30;99.90
39067;DHT22;24821;51.988;6.020;2023-02-10T16:16:57;7.30;99.90
39067;DHT22;24821;51.988;6.020;2023-02-10T16:19:26;7.30;99.90
39067;DHT22;24821;51.988;6.020;2023-02-10T16:21:52;7.30;99.90
39067;DHT22;24821;51.988;6.020;2023-02-10T16:24:22;7.30;99.90
39067;DHT22;24821;51.988;6.020;2023-02-10T16:26:48;7.30;99.90
39067;DHT22;24821;51.988;6.020;2023-02-10T16:29:26;7.30;99.90
39067;DHT22;24821;51.988;6.020;2023-02-10T16:31:52;7.30;99.90
39067;DHT22;24821;51.988;6.020;2023-02-10T16:34:17;7.30;99.90
39067;DHT22;24821;51.988;6.020;2023-02-10T16:36:43;7.30;99.90
39067;DHT22;24821;51.988;6.020;2023-02-10T16:39:21;7.30;99.90
39067;DHT22;24821;51.988;6.020;2023-02-10T16:41:48;7.30;99.90
39067;DHT22;24821;51.988;6.020;2023-02-10T16:44:15;7.30;99.90
39067;DHT22;24821;51.988;6.020;2023-02-10T16:46:40;7.30;99.90
39067;DHT22;24821;51.988;6.020;2023-02-10T16:49:07;7.30;99.90
39067;DHT22;24821;51.988;6.020;2023-02-10T16:51:33;7.30;99.90
39067;DHT22;24821;51.988;6.020;2023-02-10T16:53:59;7.30;99.90
39067;DHT22;24821;51.988;6.020;2023-02-10T16:56:24;7.30;99.90
39067;DHT22;24821;51.988;6.020;2023-02-10T16:58:51;7.30;99.90
39067;DHT22;24821;51.988;6.020;2023-02-10T17:01:17;7.30;99.90
39067;DHT22;24821;51.988;6.020;2023-02-10T17:03:43;7.30;99.90
39067;DHT22;24821;51.988;6.020;2023-02-10T17:06:17;7.30;99.90
39067;DHT22;24821;51.988;6.020;2023-02-10T17:08:50;7.30;99.90
39067;DHT22;24821;51.988;6.020;2023-02-10T17:11:16;7.20;99.90
39067;DHT22;24821;51.988;6.020;2023-02-10T17:13:42;7.30;99.90
39067;DHT22;24821;51.988;6.020;2023-02-10T17:16:24;7.20;99.90
39067;DHT22;24821;51.988;6.020;2023-02-10T17:18:51;7.20;99.90
39067;DHT22;24821;51.988;6.020;2023-02-10T17:21:17;7.20;99.90
39067;DHT22;24821;51.988;6.020;2023-02-10T17:23:43;7.20;99.90
39067;DHT22;24821;51.988;6.020;2023-02-10T17:26:11;7.20;99.90
39067;DHT22;24821;51.988;6.020;2023-02-10T17:28:37;7.10;99.90
39067;DHT22;24821;51.988;6.020;2023-02-10T17:31:03;7.10;99.90
39067;DHT22;24821;51.988;6.020;2023-02-10T17:33:28;7.10;99.90
39067;DHT22;24821;51.988;6.020;2023-02-10T17:35:54;7.10;99.90
39067;DHT22;24821;51.988;6.020;2023-02-10T17:38:20;7.10;99.90
39067;DHT22;24821;51.988;6.020;2023-02-10T17:41:07;7.10;99.90
39067;DHT22;24821;51.988;6.020;2023-02-10T17:43:32;7.10;99.90